Time;durP1;ratioP1;P1;durP2;ratioP2;P2;SDS_P1;SDS_P2;PMS_P1;PMS_P2;Temp;Humidity;BMP_temperature;BMP_pressure;BME280_temperature;BME280_humidity;BME280_pressure;Samples;Min_cycle;Max_cycle;Signal;HPM_P1;HPM_P2
2021/11/26 00:01:26;;;;;;;21.13;10.02;;;;;;;10.45;50.44;100381.84;5060417;28;20057;-76
2021/11/26 00:03:53;;;;;;;18.65;9.35;;;;;;;10.44;50.44;100374.69;5067533;28;20041;-76
2021/11/26 00:06:19;;;;;;;19.75;10.15;;;;;;;10.45;50.22;100376.41;5066914;28;20135;-76
2021/11/26 00:08:46;;;;;;;23.30;10.18;;;;;;;10.45;50.38;100373.69;5070819;28;20052;-76
2021/11/26 00:11:15;;;;;;;20.52;9.40;;;;;;;10.45;50.71;100374.56;5061740;28;20569;-76
2021/11/26 00:13:47;;;;;;;18.10;8.82;;;;;;;10.45;50.59;100365.56;5055537;28;20060;-76
2021/11/26 00:16:18;;;;;;;20.77;10.02;;;;;;;10.45;50.52;100366.44;5037383;28;20106;-76
2021/11/26 00:18:52;;;;;;;22.63;9.63;;;;;;;10.46;50.52;100364.59;5053543;28;20119;-76
2021/11/26 00:21:19;;;;;;;18.83;9.43;;;;;;;10.46;50.51;100356.44;5042900;28;20558;-77
2021/11/26 00:23:46;;;;;;;23.08;10.32;;;;;;;10.46;50.37;100359.16;5062431;28;20059;-76
2021/11/26 00:26:12;;;;;;;22.65;10.57;;;;;;;10.47;50.06;100353.59;5065253;28;20059;-76
2021/11/26 00:28:39;;;;;;;23.52;10.68;;;;;;;10.47;50.35;100344.56;5075313;28;20446;-76
2021/11/26 00:31:05;;;;;;;21.30;10.32;;;;;;;10.48;50.33;100349.03;5067523;28;20052;-76
2021/11/26 00:33:33;;;;;;;22.67;10.77;;;;;;;10.47;50.48;100334.59;5057810;28;20045;-76
2021/11/26 00:36:00;;;;;;;22.67;11.35;;;;;;;10.47;50.21;100339.16;5050006;28;20079;-76
2021/11/26 00:38:27;;;;;;;22.55;10.50;;;;;;;10.48;50.38;100333.63;5062891;28;20044;-76
2021/11/26 00:40:53;;;;;;;24.60;11.05;;;;;;;10.47;50.54;100326.44;5068748;28;20052;-76
2021/11/26 00:43:20;;;;;;;23.00;10.75;;;;;;;10.47;50.44;100315.59;5067674;28;20048;-76
2021/11/26 00:45:49;;;;;;;24.40;11.88;;;;;;;10.48;50.36;100313.75;5058839;28;20036;-76
2021/11/26 00:48:15;;;;;;;22.77;10.55;;;;;;;10.47;50.83;100307.44;5068239;28;20045;-76
2021/11/26 00:50:43;;;;;;;21.45;10.48;;;;;;;10.48;50.51;100302.88;5035408;28;20091;-76
2021/11/26 00:53:09;;;;;;;20.98;10.07;;;;;;;10.48;50.64;100301.03;5066991;28;20048;-76
2021/11/26 00:55:36;;;;;;;21.92;11.57;;;;;;;10.48;50.49;100298.31;5036720;28;20111;-76
2021/11/26 00:58:03;;;;;;;21.70;10.40;;;;;;;10.49;50.39;100299.19;5078431;28;20060;-76
2021/11/26 01:00:31;;;;;;;23.20;11.48;;;;;;;10.49;50.59;100289.22;5053903;28;20095;-76
2021/11/26 01:02:59;;;;;;;24.58;11.48;;;;;;;10.49;50.47;100291.94;5065953;28;20059;-76
2021/11/26 01:05:25;;;;;;;25.77;11.50;;;;;;;10.49;50.46;100285.63;5050206;28;20131;-76
2021/11/26 01:07:52;;;;;;;24.60;12.40;;;;;;;10.48;50.51;100282.03;5065271;28;20072;-76
2021/11/26 01:10:21;;;;;;;25.95;11.75;;;;;;;10.51;50.69;100289.09;5059398;28;20438;-76
2021/11/26 01:12:48;;;;;;;24.63;11.85;;;;;;;10.49;50.41;100283.78;5055440;28;20052;-76
2021/11/26 01:15:18;;;;;;;21.55;10.48;;;;;;;10.51;50.39;100273.69;5052881;28;20051;-76
2021/11/26 01:17:46;;;;;;;21.75;11.02;;;;;;;10.51;50.57;100272.81;5049467;28;20053;-76
2021/11/26 01:20:18;;;;;;;23.73;10.43;;;;;;;10.51;50.72;100267.38;5070476;28;20079;-76
2021/11/26 01:22:44;;;;;;;23.80;11.05;;;;;;;10.50;50.53;100266.53;5062445;28;20081;-76
2021/11/26 01:25:13;;;;;;;23.73;11.73;;;;;;;10.52;50.54;100267.28;5067669;28;20075;-76
2021/11/26 01:27:41;;;;;;;19.55;10.63;;;;;;;10.51;50.52;100261.97;5077455;28;20136;-76
2021/11/26 01:30:15;;;;;;;20.52;10.65;;;;;;;10.51;50.56;100251.09;5073982;28;20080;-76
2021/11/26 01:32:42;;;;;;;20.85;11.07;;;;;;;10.51;50.47;100257.41;5062124;28;20057;-76
2021/11/26 01:35:09;;;;;;;23.15;12.30;;;;;;;10.50;50.69;100242.09;5060220;28;20487;-76
2021/11/26 01:37:35;;;;;;;27.58;12.05;;;;;;;10.51;50.78;100243.81;5054060;28;20082;-76
2021/11/26 01:40:07;;;;;;;24.35;11.95;;;;;;;10.53;50.45;100239.16;5059069;28;20480;-77
2021/11/26 01:42:34;;;;;;;25.85;13.07;;;;;;;10.51;50.61;100227.53;5066202;28;20602;-76
2021/11/26 01:45:00;;;;;;;24.38;11.27;;;;;;;10.51;50.64;100219.41;5069495;28;20049;-76
2021/11/26 01:47:27;;;;;;;22.40;12.15;;;;;;;10.51;50.47;100208.53;5052430;28;20455;-76
2021/11/26 01:49:54;;;;;;;25.63;12.65;;;;;;;10.52;50.78;100212.13;5061304;28;20176;-76
2021/11/26 01:52:20;;;;;;;23.67;11.18;;;;;;;10.52;50.62;100202.13;5047245;28;20328;-76
2021/11/26 01:54:47;;;;;;;25.05;12.48;;;;;;;10.51;50.71;100196.81;5051878;28;20681;-76
2021/11/26 01:57:16;;;;;;;26.20;12.88;;;;;;;10.54;50.78;100202.03;5065475;28;20056;-76
2021/11/26 01:59:43;;;;;;;23.23;13.25;;;;;;;10.51;50.70;100185.97;5070408;28;20128;-77
2021/11/26 02:02:10;;;;;;;25.15;12.70;;;;;;;10.51;50.63;100189.53;5061024;28;20048;-76
2021/11/26 02:04:36;;;;;;;22.15;12.23;;;;;;;10.52;50.34;100177.72;5069043;28;20061;-76
2021/11/26 02:07:03;;;;;;;25.08;12.07;;;;;;;10.51;50.47;100180.53;5044857;28;20531;-76
2021/11/26 02:09:30;;;;;;;22.80;12.60;;;;;;;10.51;50.54;100177.81;5071743;28;20048;-76
2021/11/26 02:11:56;;;;;;;24.25;11.63;;;;;;;10.49;50.10;100166.22;5071352;28;20064;-76
2021/11/26 02:14:24;;;;;;;24.02;12.38;;;;;;;10.48;50.44;100172.63;5069445;28;20049;-76
2021/11/26 02:16:51;;;;;;;21.67;11.32;;;;;;;10.47;50.48;100166.31;5068842;28;20080;-76
2021/11/26 02:19:24;;;;;;;26.75;13.13;;;;;;;10.49;50.61;100168.94;5041109;28;20484;-76
2021/11/26 02:21:50;;;;;;;;;;;;;;;10.24;51.05;100161.81;5043712;28;20185;-76
2021/11/26 02:24:17;;;;;;;21.23;10.18;;;;;;;10.41;50.58;100155.09;5070979;28;20510;-76
2021/11/26 02:26:46;;;;;;;23.55;11.82;;;;;;;10.45;50.25;100154.75;5069638;28;20140;-76
2021/11/26 02:29:15;;;;;;;22.23;11.32;;;;;;;10.44;50.55;100149.44;5066978;28;20044;-76
2021/11/26 02:31:44;;;;;;;17.98;10.25;;;;;;;10.45;50.25;100145.75;5067348;28;20151;-76
2021/11/26 02:34:12;;;;;;;21.30;11.32;;;;;;;10.43;50.56;100134.13;5059960;28;20084;-76
2021/11/26 02:36:39;;;;;;;22.13;11.07;;;;;;;10.42;50.70;100125.13;5070748;28;20083;-77
2021/11/26 02:39:09;;;;;;;17.70;9.80;;;;;;;10.44;50.58;100133.16;5041140;28;20049;-76
2021/11/26 02:41:38;;;;;;;20.45;10.98;;;;;;;10.44;50.52;100125.00;5051516;28;20049;-76
2021/11/26 02:44:05;;;;;;;22.92;10.88;;;;;;;10.43;50.75;100117.84;5047948;28;20052;-76
2021/11/26 02:46:33;;;;;;;19.42;9.85;;;;;;;10.43;50.69;100109.72;5057853;28;20384;-76
2021/11/26 02:48:59;;;;;;;22.30;10.15;;;;;;;10.44;50.63;100115.03;5071349;28;20490;-75
2021/11/26 02:51:26;;;;;;;19.58;10.70;;;;;;;10.44;51.10;100103.31;5070044;28;20516;-76
2021/11/26 02:53:53;;;;;;;20.58;10.20;;;;;;;10.45;50.84;100105.91;5071419;28;20056;-76
2021/11/26 02:56:20;;;;;;;15.55;9.00;;;;;;;10.44;50.69;100090.59;5065166;28;20567;-76
2021/11/26 02:58:46;;;;;;;17.98;10.23;;;;;;;10.45;50.62;100092.34;5066428;28;20049;-76
2021/11/26 03:01:13;;;;;;;18.02;9.05;;;;;;;10.45;50.62;100094.19;5061437;28;20061;-76
2021/11/26 03:03:40;;;;;;;17.88;8.80;;;;;;;10.45;50.47;100092.34;5053586;28;20052;-76
2021/11/26 03:06:07;;;;;;;14.73;8.07;;;;;;;10.45;50.40;100084.19;5052703;28;20052;-75
2021/11/26 03:08:34;;;;;;;15.80;9.80;;;;;;;10.47;50.60;100084.03;5064051;28;20102;-76
2021/11/26 03:11:03;;;;;;;15.90;8.90;;;;;;;10.47;50.54;100081.31;5046439;28;20113;-76
2021/11/26 03:13:30;;;;;;;17.00;9.65;;;;;;;10.45;50.45;100069.75;5051490;28;20049;-76
2021/11/26 03:15:57;;;;;;;15.75;8.70;;;;;;;10.45;50.18;100064.31;5060541;28;20090;-76
2021/11/26 03:18:26;;;;;;;14.02;8.18;;;;;;;10.42;50.53;100054.56;5049611;28;20479;-76
2021/11/26 03:20:54;;;;;;;15.48;8.10;;;;;;;10.42;50.32;100051.00;5059364;28;20056;-76
2021/11/26 03:23:21;;;;;;;16.38;8.40;;;;;;;10.41;50.34;100055.56;5068330;28;20474;-76
2021/11/26 03:25:48;;;;;;;16.35;8.63;;;;;;;10.41;50.30;100044.69;5067389;28;20094;-76
2021/11/26 03:28:16;;;;;;;14.88;8.00;;;;;;;10.41;50.32;100044.69;5072026;28;20083;-76
2021/11/26 03:30:44;;;;;;;13.95;8.35;;;;;;;10.40;50.50;100034.81;5071269;28;20132;-75
2021/11/26 03:33:11;;;;;;;16.70;7.97;;;;;;;10.39;50.40;100035.81;5069435;28;20127;-75
2021/11/26 03:35:38;;;;;;;14.45;7.60;;;;;;;10.38;50.28;100027.81;5069348;28;20079;-77
2021/11/26 03:38:04;;;;;;;15.60;8.30;;;;;;;10.37;50.39;100026.94;5056129;28;20158;-76
2021/11/26 03:40:31;;;;;;;13.10;7.57;;;;;;;10.37;50.36;100026.94;5053937;28;20041;-76
2021/11/26 03:42:58;;;;;;;12.32;7.07;;;;;;;10.36;50.28;100027.06;5056863;28;20061;-76
2021/11/26 03:45:27;;;;;;;13.32;7.18;;;;;;;10.36;50.47;100017.06;5053246;28;20041;-76
2021/11/26 03:47:55;;;;;;;13.30;7.68;;;;;;;10.36;50.24;100013.50;5054384;28;20053;-76
2021/11/26 03:50:23;;;;;;;13.82;7.35;;;;;;;10.34;50.48;100010.03;5052791;28;20073;-76
2021/11/26 03:52:50;;;;;;;13.15;7.28;;;;;;;10.33;50.09;100002.88;5062324;28;20444;-76
2021/11/26 03:55:21;;;;;;;12.30;7.45;;;;;;;10.34;50.42;99994.63;5058400;28;20471;-76
2021/11/26 03:57:49;;;;;;;15.73;8.32;;;;;;;10.31;50.32;99989.44;5079445;28;20134;-76
2021/11/26 04:00:16;;;;;;;13.18;7.57;;;;;;;10.31;50.31;99994.84;5078385;28;20052;-76
2021/11/26 04:02:43;;;;;;;16.08;7.78;;;;;;;10.29;50.12;99986.81;5056407;28;20411;-76
2021/11/26 04:05:10;;;;;;;16.38;7.95;;;;;;;10.28;50.23;99979.69;5048717;28;20137;-76
2021/11/26 04:07:37;;;;;;;17.50;8.00;;;;;;;10.28;50.34;99979.69;5060561;28;20470;-76
2021/11/26 04:10:05;;;;;;;15.35;8.63;;;;;;;10.29;50.32;99977.84;5070077;28;20082;-76
2021/11/26 04:12:32;;;;;;;13.68;7.93;;;;;;;10.26;50.38;99973.53;5040957;28;20171;-76
2021/11/26 04:14:59;;;;;;;15.30;7.68;;;;;;;10.26;50.16;99967.22;5053933;28;20323;-76
2021/11/26 04:17:26;;;;;;;13.40;8.13;;;;;;;10.25;50.08;99965.50;5064009;28;20076;-76
2021/11/26 04:19:52;;;;;;;14.05;7.78;;;;;;;10.24;50.29;99961.94;5068235;28;20076;-76
2021/11/26 04:22:19;;;;;;;15.30;8.48;;;;;;;10.23;50.22;99954.78;5054349;28;20065;-76
2021/11/26 04:24:46;;;;;;;16.23;8.93;;;;;;;10.22;50.34;99944.91;5059420;28;20147;-76
2021/11/26 04:27:12;;;;;;;15.35;8.40;;;;;;;10.22;50.30;99939.47;5054402;28;20087;-77
2021/11/26 04:29:40;;;;;;;14.32;8.38;;;;;;;10.21;50.47;99937.75;5063951;28;20490;-76
2021/11/26 04:32:07;;;;;;;16.65;8.32;;;;;;;10.23;50.30;99933.06;5061877;28;20111;-76
2021/11/26 04:34:34;;;;;;;15.32;8.45;;;;;;;10.21;50.60;99920.63;5050078;28;20102;-76
2021/11/26 04:37:00;;;;;;;15.13;8.38;;;;;;;10.21;50.53;99916.03;5065162;28;20048;-76
2021/11/26 04:39:27;;;;;;;16.75;8.85;;;;;;;10.20;50.39;99911.63;5057122;28;20559;-76
2021/11/26 04:41:54;;;;;;;13.88;8.05;;;;;;;10.20;50.68;99906.22;5061824;28;20126;-76
2021/11/26 04:44:20;;;;;;;15.80;9.00;;;;;;;10.21;50.62;99907.91;5064983;28;20056;-76
2021/11/26 04:46:47;;;;;;;15.93;8.55;;;;;;;10.21;50.77;99899.75;5055715;28;20052;-77
2021/11/26 04:49:14;;;;;;;16.80;8.23;;;;;;;10.22;50.79;99900.63;5069750;28;20775;-76
2021/11/26 04:51:40;;;;;;;14.00;8.30;;;;;;;10.21;50.72;99894.34;5076667;28;20052;-77
2021/11/26 04:54:07;;;;;;;14.55;7.68;;;;;;;10.23;50.48;99886.09;5071269;28;20568;-77
2021/11/26 04:56:34;;;;;;;15.85;8.75;;;;;;;10.24;50.76;99882.38;5068119;28;20053;-77
2021/11/26 04:59:00;;;;;;;10.85;7.43;;;;;;;10.23;50.78;99880.66;5080592;28;20080;-77
2021/11/26 05:01:27;;;;;;;15.80;8.25;;;;;;;10.23;50.61;99876.09;5063521;28;20060;-77
2021/11/26 05:03:54;;;;;;;14.35;8.85;;;;;;;10.25;50.43;99878.69;5070381;28;20057;-76
2021/11/26 05:06:21;;;;;;;15.00;8.40;;;;;;;10.23;50.65;99862.53;5071366;28;20045;-77
2021/11/26 05:08:48;;;;;;;13.50;8.38;;;;;;;10.24;50.63;99861.56;5071774;28;20060;-77
2021/11/26 05:11:15;;;;;;;13.77;8.07;;;;;;;10.24;50.80;99861.56;5056218;28;20091;-77
2021/11/26 05:13:45;;;;;;;12.23;7.97;;;;;;;10.25;50.74;99851.56;5052978;28;20107;-78
2021/11/26 05:16:13;;;;;;;11.80;7.43;;;;;;;10.26;51.10;99848.75;5057972;28;20110;-78
2021/11/26 05:18:44;;;;;;;15.93;8.15;;;;;;;10.28;50.99;99848.63;5068401;28;20060;-77
2021/11/26 05:21:12;;;;;;;13.38;7.93;;;;;;;10.26;50.68;99835.16;5066986;28;20481;-77
2021/11/26 05:23:39;;;;;;;15.75;8.07;;;;;;;10.26;50.79;99835.16;5067068;28;20066;-77
2021/11/26 05:26:07;;;;;;;15.05;8.20;;;;;;;10.27;50.93;99830.63;5045555;28;20045;-77
2021/11/26 05:28:33;;;;;;;13.48;8.43;;;;;;;10.27;50.94;99819.75;5076777;28;20085;-78
2021/11/26 05:31:00;;;;;;;12.52;7.63;;;;;;;10.29;50.80;99820.50;5060000;28;20049;-78
2021/11/26 05:33:27;;;;;;;13.25;8.10;;;;;;;10.28;50.77;99826.91;5052900;28;20056;-77
2021/11/26 05:35:54;;;;;;;12.55;7.28;;;;;;;10.28;50.86;99811.50;5048906;28;20040;-78
2021/11/26 05:38:21;;;;;;;13.20;7.57;;;;;;;10.29;51.07;99818.63;5062016;28;20048;-78
2021/11/26 05:40:48;;;;;;;12.60;7.68;;;;;;;10.27;50.80;99807.06;5057602;28;20045;-78
2021/11/26 05:43:16;;;;;;;15.38;7.88;;;;;;;10.29;50.80;99805.06;5064827;28;20131;-77
2021/11/26 05:45:43;;;;;;;12.20;6.85;;;;;;;10.29;50.93;99806.94;5064582;28;20080;-78
2021/11/26 05:48:10;;;;;;;12.00;6.80;;;;;;;10.27;50.65;99804.34;5060985;28;20060;-78
2021/11/26 05:50:37;;;;;;;13.45;7.55;;;;;;;10.27;50.82;99803.47;5061616;28;20114;-78
2021/11/26 05:53:05;;;;;;;16.00;7.55;;;;;;;10.28;51.13;99803.38;5063897;28;20056;-78
2021/11/26 05:55:32;;;;;;;11.73;7.03;;;;;;;10.26;50.90;99799.91;5054049;28;20331;-78
2021/11/26 05:58:00;;;;;;;12.20;7.35;;;;;;;10.27;50.81;99798.91;5066691;28;20152;-78
2021/11/26 06:00:28;;;;;;;11.27;7.07;;;;;;;10.27;50.86;99793.50;5056319;28;20045;-78
2021/11/26 06:02:55;;;;;;;10.15;6.60;;;;;;;10.26;50.69;99790.91;5041746;28;20048;-78
2021/11/26 06:05:23;;;;;;;11.13;7.22;;;;;;;10.26;50.92;99794.47;5053321;28;20491;-78
2021/11/26 06:07:51;;;;;;;11.20;7.38;;;;;;;10.26;51.08;99790.91;5044951;28;20052;-78
2021/11/26 06:10:18;;;;;;;10.38;6.78;;;;;;;10.25;50.92;99789.19;5059709;28;20496;-78
2021/11/26 06:12:46;;;;;;;12.73;7.43;;;;;;;10.25;50.96;99784.63;5054647;28;20091;-78
2021/11/26 06:15:15;;;;;;;10.43;7.10;;;;;;;10.24;51.00;99779.31;5059370;28;20044;-78
2021/11/26 06:17:42;;;;;;;11.38;7.10;;;;;;;10.23;50.68;99778.44;5041980;28;20471;-78
2021/11/26 06:20:10;;;;;;;11.85;6.93;;;;;;;10.22;51.27;99768.59;5055503;28;20072;-78
2021/11/26 06:22:40;;;;;;;11.85;7.47;;;;;;;10.21;51.04;99769.56;5064649;28;20057;-77
2021/11/26 06:25:08;;;;;;;10.88;6.88;;;;;;;10.20;50.97;99762.44;5057829;28;20561;-77
2021/11/26 06:27:35;;;;;;;11.25;6.97;;;;;;;10.19;50.70;99765.28;5066513;28;20147;-78
2021/11/26 06:30:05;;;;;;;11.50;7.03;;;;;;;10.19;51.09;99760.72;5050565;28;20053;-78
2021/11/26 06:32:32;;;;;;;12.55;6.93;;;;;;;10.18;51.27;99755.41;5055192;28;20084;-77
2021/11/26 06:34:58;;;;;;;10.82;6.60;;;;;;;10.16;51.16;99752.78;5061433;28;20492;-77
2021/11/26 06:37:25;;;;;;;11.02;6.35;;;;;;;10.16;51.31;99752.78;5067202;28;20730;-79
2021/11/26 06:39:51;;;;;;;10.18;6.78;;;;;;;10.17;51.10;99748.22;5054899;28;20622;-80
2021/11/26 06:42:18;;;;;;;12.55;6.32;;;;;;;10.16;51.32;99735.66;5066994;28;20053;-79
2021/11/26 06:44:48;;;;;;;8.25;5.80;;;;;;;10.17;51.25;99735.56;5054342;28;20087;-77
2021/11/26 06:47:15;;;;;;;10.10;5.72;;;;;;;10.15;51.43;99729.38;5053492;28;20056;-77
2021/11/26 06:49:42;;;;;;;9.48;6.38;;;;;;;10.15;51.21;99732.06;5049777;28;20514;-77
2021/11/26 06:52:08;;;;;;;9.02;5.55;;;;;;;10.15;51.36;99723.06;5042915;28;20091;-77
2021/11/26 06:54:35;;;;;;;11.05;6.38;;;;;;;10.15;51.19;99723.94;5069575;28;20441;-77
2021/11/26 06:57:03;;;;;;;9.23;5.45;;;;;;;10.15;51.34;99723.94;5038519;28;20562;-77
2021/11/26 06:59:30;;;;;;;8.45;5.60;;;;;;;10.15;51.46;99717.66;5072320;28;20491;-77
2021/11/26 07:02:00;;;;;;;8.45;5.53;;;;;;;10.15;51.56;99717.66;5032333;28;20064;-77
2021/11/26 07:04:27;;;;;;;7.00;4.88;;;;;;;10.15;51.38;99712.22;5065486;28;20091;-77
2021/11/26 07:06:54;;;;;;;8.57;5.35;;;;;;;10.14;51.21;99705.06;5032629;28;20689;-77
2021/11/26 07:09:22;;;;;;;7.53;4.70;;;;;;;10.16;51.23;99708.53;5047252;28;20048;-77
2021/11/26 07:12:11;;;;;;;6.53;4.82;;;;;;;10.15;51.73;99706.81;5057738;28;20487;-77
2021/11/26 07:14:46;;;;;;;7.65;5.03;;;;;;;10.13;51.33;99690.66;5059313;28;20077;-77
2021/11/26 07:17:13;;;;;;;8.50;5.28;;;;;;;10.12;51.62;99688.97;5019066;28;20075;-77
2021/11/26 07:19:49;;;;;;;8.95;6.03;;;;;;;10.14;51.85;99692.38;5058326;28;20136;-77
2021/11/26 07:22:20;;;;;;;8.50;5.40;;;;;;;10.13;51.58;99681.69;5037053;28;20111;-77
2021/11/26 07:24:48;;;;;;;6.68;4.70;;;;;;;10.12;51.41;99683.53;5039094;28;20092;-77
2021/11/26 07:27:38;;;;;;;8.60;5.13;;;;;;;10.14;51.62;99683.38;5020512;28;20087;-77
2021/11/26 07:30:07;;;;;;;8.85;5.25;;;;;;;10.13;51.49;99681.69;4991491;28;20101;-77
2021/11/26 07:32:43;;;;;;;9.00;5.57;;;;;;;10.12;51.25;99675.41;4952043;28;20051;-77
2021/11/26 07:35:30;;;;;;;9.02;5.10;;;;;;;10.12;51.63;99675.41;4990917;28;20062;-77
2021/11/26 07:37:57;;;;;;;6.10;4.47;;;;;;;10.12;51.64;99669.97;4963890;28;20063;-76
2021/11/26 07:40:27;;;;;;;9.30;5.28;;;;;;;10.12;51.63;99669.97;4988971;28;20046;-77
2021/11/26 07:43:11;;;;;;;9.13;4.88;;;;;;;10.12;52.00;99666.41;4971684;28;20057;-76
2021/11/26 07:45:40;;;;;;;6.93;4.20;;;;;;;10.10;51.32;99665.66;4984557;28;20050;-77
2021/11/26 07:48:24;;;;;;;6.93;4.03;;;;;;;10.10;51.53;99668.38;4988075;28;20050;-77
2021/11/26 07:50:51;;;;;;;6.85;4.25;;;;;;;10.10;51.54;99661.09;4988577;28;20061;-78
2021/11/26 07:53:18;;;;;;;8.18;4.55;;;;;;;10.11;51.53;99659.25;4989618;28;20069;-77
2021/11/26 07:55:44;;;;;;;5.97;4.00;;;;;;;10.10;51.59;99652.97;4988907;28;20077;-77
2021/11/26 07:58:12;;;;;;;5.55;3.83;;;;;;;10.10;51.72;99647.53;4998173;28;20108;-77
2021/11/26 08:00:39;;;;;;;6.63;3.78;;;;;;;10.11;51.72;99649.25;4981073;28;20424;-77
2021/11/26 08:03:08;;;;;;;6.85;3.83;;;;;;;10.11;51.84;99629.41;4987692;28;20564;-77
2021/11/26 08:05:56;;;;;;;7.05;3.83;;;;;;;10.11;51.64;99643.84;4988212;28;20137;-77
2021/11/26 08:08:23;;;;;;;8.13;4.25;;;;;;;10.12;51.66;99632.00;5047822;28;20099;-77
2021/11/26 08:10:49;;;;;;;5.63;4.15;;;;;;;10.15;51.97;99636.28;5056951;28;20106;-77
2021/11/26 08:13:16;;;;;;;8.13;4.80;;;;;;;10.15;51.77;99626.31;5059845;28;20129;-77
2021/11/26 08:15:43;;;;;;;8.80;4.18;;;;;;;10.15;51.91;99626.31;5066781;28;20056;-77
2021/11/26 08:18:10;;;;;;;9.48;5.13;;;;;;;10.16;51.55;99614.47;5051799;28;20048;-77
2021/11/26 08:20:37;;;;;;;7.15;4.55;;;;;;;10.17;51.88;99612.63;5051273;28;20048;-77
2021/11/26 08:23:04;;;;;;;7.75;4.70;;;;;;;10.17;51.69;99604.47;5054872;28;20407;-77
2021/11/26 08:25:32;;;;;;;9.05;5.10;;;;;;;10.18;51.76;99603.53;5070510;28;20227;-77
2021/11/26 08:27:59;;;;;;;9.50;4.65;;;;;;;10.18;51.61;99595.38;5061216;28;20060;-78
2021/11/26 08:30:25;;;;;;;10.45;5.75;;;;;;;10.18;51.86;99592.69;5053470;28;20045;-77
2021/11/26 08:32:52;;;;;;;9.63;5.47;;;;;;;10.20;51.76;99590.69;5069824;28;20215;-77
2021/11/26 08:35:21;;;;;;;10.70;5.40;;;;;;;10.22;51.85;99591.41;5071597;28;20072;-77
2021/11/26 08:37:48;;;;;;;9.10;5.15;;;;;;;10.20;51.79;99588.00;5064009;28;20088;-78
2021/11/26 08:40:16;;;;;;;10.77;5.50;;;;;;;10.20;52.02;99579.84;5044297;28;20045;-77
2021/11/26 08:42:43;;;;;;;9.27;4.90;;;;;;;10.19;51.61;99581.69;5054950;28;20078;-77
2021/11/26 08:45:11;;;;;;;9.95;6.18;;;;;;;10.21;51.72;99576.16;5067676;28;20440;-77
2021/11/26 08:47:40;;;;;;;10.48;5.53;;;;;;;10.21;51.75;99570.72;5051543;28;20316;-77
2021/11/26 08:50:10;;;;;;;10.38;5.25;;;;;;;10.21;51.94;99570.72;5060136;28;20503;-77
2021/11/26 08:52:37;;;;;;;8.70;5.22;;;;;;;10.20;51.57;99564.44;5051631;28;20142;-77
2021/11/26 08:55:06;;;;;;;10.30;4.88;;;;;;;10.22;51.68;99564.28;5059939;28;20107;-77
2021/11/26 08:57:34;;;;;;;8.63;5.32;;;;;;;10.22;51.60;99562.44;5056314;28;20514;-77
2021/11/26 09:00:02;;;;;;;11.27;5.90;;;;;;;10.20;51.71;99561.72;5053904;28;20087;-77
2021/11/26 09:02:28;;;;;;;9.00;5.10;;;;;;;10.21;51.76;99558.00;5065724;28;20396;-77
2021/11/26 09:04:55;;;;;;;10.05;5.35;;;;;;;10.21;51.57;99549.84;5051333;28;20084;-77
2021/11/26 09:07:21;;;;;;;10.75;5.35;;;;;;;10.20;51.73;99548.16;5067921;28;20427;-77
2021/11/26 09:09:48;;;;;;;9.40;4.65;;;;;;;10.21;51.86;99539.00;5063756;28;20057;-76
2021/11/26 09:12:14;;;;;;;9.25;5.00;;;;;;;10.22;51.78;99542.59;5043013;28;20131;-78
2021/11/26 09:14:42;;;;;;;8.38;4.75;;;;;;;10.22;51.89;99545.28;5055781;28;20048;-76
2021/11/26 09:17:08;;;;;;;8.18;4.55;;;;;;;10.22;51.57;99531.72;5045833;28;20045;-76
2021/11/26 09:19:35;;;;;;;10.35;4.68;;;;;;;10.22;51.78;99542.59;5051134;28;20091;-78
2021/11/26 09:22:02;;;;;;;8.10;5.07;;;;;;;10.23;51.65;99538.88;5053799;28;20045;-76
2021/11/26 09:24:31;;;;;;;11.57;5.03;;;;;;;10.23;51.71;99537.03;5059922;28;20102;-76
2021/11/26 09:26:57;;;;;;;12.55;4.90;;;;;;;10.24;51.67;99537.91;5056885;28;20130;-77
2021/11/26 09:29:24;;;;;;;8.45;4.88;;;;;;;10.23;51.54;99523.47;5058949;28;20053;-77
2021/11/26 09:31:51;;;;;;;10.65;5.28;;;;;;;10.24;51.55;99521.63;5055164;28;20175;-77
2021/11/26 09:34:17;;;;;;;10.57;5.07;;;;;;;10.24;51.50;99522.47;5058084;28;20072;-77
2021/11/26 09:36:44;;;;;;;9.20;4.88;;;;;;;10.24;51.57;99527.03;5079276;28;20076;-78
2021/11/26 09:39:10;;;;;;;10.15;4.90;;;;;;;10.24;51.18;99524.34;5067660;28;20092;-77
2021/11/26 09:41:37;;;;;;;11.60;5.45;;;;;;;10.24;51.58;99521.63;5065375;28;20526;-77
2021/11/26 09:44:05;;;;;;;9.15;5.03;;;;;;;10.24;51.42;99510.78;5069466;28;20052;-77
2021/11/26 09:46:35;;;;;;;10.65;5.25;;;;;;;10.22;51.27;99507.31;5052363;28;20126;-77
2021/11/26 09:49:03;;;;;;;7.47;4.60;;;;;;;10.23;51.41;99506.34;5066016;28;20075;-77
2021/11/26 09:51:29;;;;;;;11.40;4.70;;;;;;;10.23;51.51;99492.78;5053680;28;20057;-78
2021/11/26 09:53:57;;;;;;;10.05;5.03;;;;;;;10.22;51.34;99489.19;5046092;28;20052;-78
2021/11/26 09:56:24;;;;;;;11.02;5.32;;;;;;;10.22;51.45;99493.75;5059844;28;20139;-77
2021/11/26 09:58:51;;;;;;;9.40;4.90;;;;;;;10.22;51.29;99483.78;5051910;28;20472;-78
2021/11/26 10:01:18;;;;;;;9.45;5.03;;;;;;;10.22;51.37;99488.34;5054509;28;20053;-78
2021/11/26 10:03:51;;;;;;;9.82;4.45;;;;;;;10.24;51.29;99484.50;5057403;28;20045;-77
2021/11/26 10:06:27;;;;;;;7.95;4.32;;;;;;;10.23;51.64;99474.66;5054401;28;20055;-68
2021/11/26 10:08:55;;;;;;;9.50;4.60;;;;;;;10.23;51.75;99465.66;5050180;28;20140;-68
2021/11/26 10:11:27;;;;;;;10.23;4.45;;;;;;;10.25;52.02;99453.69;5060090;28;20554;-68
2021/11/26 10:13:54;;;;;;;11.93;4.68;;;;;;;10.27;51.78;99450.84;5047237;28;20139;-68
2021/11/26 10:16:52;;;;;;;9.95;4.50;;;;;;;10.30;51.82;99437.84;5049188;28;20057;-78
2021/11/26 10:19:31;;;;;;;11.13;4.30;;;;;;;10.35;51.34;99434.75;5057784;28;20052;-77
2021/11/26 10:21:58;;;;;;;10.45;4.50;;;;;;;10.38;51.82;99431.75;5065325;28;20044;-78
2021/11/26 10:24:25;;;;;;;11.55;4.68;;;;;;;10.41;51.52;99430.63;5056250;28;20045;-78
2021/11/26 10:26:55;;;;;;;10.10;5.15;;;;;;;10.44;51.11;99425.78;5057983;28;20071;-78
2021/11/26 10:29:38;;;;;;;9.48;4.07;;;;;;;10.46;50.51;99412.09;5048567;28;20047;-78
2021/11/26 10:32:11;;;;;;;9.30;4.43;;;;;;;10.45;50.91;99416.66;5038236;28;20057;-77
2021/11/26 10:34:41;;;;;;;9.70;4.70;;;;;;;10.48;50.36;99400.09;5066059;28;20480;-78
2021/11/26 10:37:23;;;;;;;9.65;4.95;;;;;;;10.49;49.55;99393.66;5065703;28;20055;-77
2021/11/26 10:39:50;;;;;;;8.82;4.60;;;;;;;10.43;50.08;99391.50;5065122;28;20514;-78
2021/11/26 10:42:29;;;;;;;8.27;4.30;;;;;;;10.44;49.28;99378.81;5071131;28;20181;-78
2021/11/26 10:45:05;;;;;;;10.05;4.95;;;;;;;10.41;49.52;99369.06;5062993;28;20076;-78
2021/11/26 10:47:51;;;;;;;7.05;3.92;;;;;;;10.40;49.00;99363.78;5068123;28;20124;-77
2021/11/26 10:58:53;;;;;;;8.77;4.55;;;;;;;10.23;49.78;99328.19;5061411;28;20063;-78
2021/11/26 11:01:20;;;;;;;8.77;4.38;;;;;;;10.25;49.58;99326.19;5062644;28;20053;-77
2021/11/26 11:03:49;;;;;;;10.10;4.50;;;;;;;10.24;49.73;99304.63;5052226;28;20067;-78
2021/11/26 11:06:21;;;;;;;11.68;5.38;;;;;;;10.26;49.05;99314.34;5059805;28;20158;-78
2021/11/26 11:09:07;;;;;;;10.18;5.35;;;;;;;10.22;48.78;99302.06;5059964;28;20088;-77
2021/11/26 11:11:36;;;;;;;8.73;4.38;;;;;;;10.22;49.19;99293.91;5065034;28;20049;-78
2021/11/26 11:14:13;;;;;;;9.85;4.90;;;;;;;10.23;48.69;99287.50;5058835;28;20299;-77
2021/11/26 11:16:47;;;;;;;8.80;4.47;;;;;;;10.21;48.95;99288.66;5059371;28;20060;-77
2021/11/26 11:19:15;;;;;;;9.38;4.22;;;;;;;10.20;49.24;99279.66;5038829;28;20079;-78
2021/11/26 11:21:44;;;;;;;9.52;3.90;;;;;;;10.21;49.24;99272.38;5037924;28;20045;-79
2021/11/26 11:24:11;;;;;;;10.75;4.22;;;;;;;10.20;49.25;99265.25;5049510;28;20562;-79
2021/11/26 11:26:45;;;;;;;6.95;3.50;;;;;;;10.22;49.07;99268.66;5053155;28;20043;-79
2021/11/26 11:29:25;;;;;;;7.40;3.30;;;;;;;10.23;47.80;99251.38;5062231;28;20053;-79
2021/11/26 11:31:54;;;;;;;8.35;3.42;;;;;;;10.21;48.72;99251.50;5058863;28;20055;-79
2021/11/26 11:34:25;;;;;;;5.82;3.47;;;;;;;10.22;48.19;99242.38;5058646;28;20418;-79
2021/11/26 11:36:56;;;;;;;5.63;3.13;;;;;;;10.20;48.53;99235.41;5049874;28;20060;-78
2021/11/26 11:39:24;;;;;;;7.18;3.58;;;;;;;10.18;48.68;99221.97;5062533;28;20045;-78